Terminal Aerodrome Forecast
Issued by NWS

Home | Current Version | Previous Version | Text Only | Print | Product List | Glossary On
Versions: 1 2 3 4 5 6 7 8 9 10 11 12 13
000
FTUS45 KTFX 251745
TAFGTF
TAF
KGTF 251745Z 2518/2618 25010KT P6SM SCT060
     FM252100 30010KT P6SM -SHRA VCTS BKN050CB
      TEMPO 2521/2601 4SM -TSRA
     FM260300 23010KT P6SM BKN050=

USA.gov is the U.S. government's official web portal to all federal, state and local government web resources and services.